Boca Grande, Florida
Current Conditions -  °F | °C
As of 6:53 PM on Friday 21 Nov 2014 (Local Time) from KPGD Reporting Station
Light Rain Light Rain  
Wind Chill: 65°   Ceiling: 5500
Heat Index: 65°   Visibility: 10mi
Dew Point: 60°   Wind: 9mph
Humidity: 84%   Direction: 60°ENE
Pressure: 30.22"   Gusts: NA
Location:  26.75°N, 82.26°W
Report Text: KPGD 212353Z 06008KT 10SM -RA FEW042 OVC055 18/16 A3022 RMK AO2 RAB10 SLP235 P0004 60005 T01830156 10233 20183 51014
Loading
Personal Weather Stations






























Interactive Weather Map New forecast layout! Learn more

10-Day Weather Forecast

Advertisements
Track Severe Weather on mobile